sensor_id;sensor_type;location;lat;lon;timestamp;P1;durP1;ratioP1;P2;durP2;ratioP2
22812;SDS011;11573;51.334;3.244;2022-08-19T00:01:34;43.83;;;27.90;;
22812;SDS011;11573;51.334;3.244;2022-08-19T00:04:04;50.00;;;29.92;;
22812;SDS011;11573;51.334;3.244;2022-08-19T00:06:33;40.50;;;28.75;;
22812;SDS011;11573;51.334;3.244;2022-08-19T00:09:02;38.95;;;26.48;;
22812;SDS011;11573;51.334;3.244;2022-08-19T00:11:31;47.58;;;30.98;;
22812;SDS011;11573;51.334;3.244;2022-08-19T00:13:59;44.40;;;28.65;;
22812;SDS011;11573;51.334;3.244;2022-08-19T00:16:26;43.42;;;28.95;;
22812;SDS011;11573;51.334;3.244;2022-08-19T00:18:53;44.45;;;28.65;;
22812;SDS011;11573;51.334;3.244;2022-08-19T00:21:22;44.95;;;29.67;;
22812;SDS011;11573;51.334;3.244;2022-08-19T00:23:50;47.08;;;30.05;;
22812;SDS011;11573;51.334;3.244;2022-08-19T00:26:18;45.72;;;30.27;;
22812;SDS011;11573;51.334;3.244;2022-08-19T00:28:45;47.45;;;29.58;;
22812;SDS011;11573;51.334;3.244;2022-08-19T00:31:12;43.15;;;29.20;;
22812;SDS011;11573;51.334;3.244;2022-08-19T00:33:39;46.72;;;30.08;;
22812;SDS011;11573;51.334;3.244;2022-08-19T00:36:07;46.25;;;29.63;;
22812;SDS011;11573;51.334;3.244;2022-08-19T00:38:37;49.22;;;30.02;;
22812;SDS011;11573;51.334;3.244;2022-08-19T00:41:07;43.22;;;29.13;;
22812;SDS011;11573;51.334;3.244;2022-08-19T00:43:36;41.03;;;28.20;;
22812;SDS011;11573;51.334;3.244;2022-08-19T00:46:05;44.95;;;29.63;;
22812;SDS011;11573;51.334;3.244;2022-08-19T00:48:32;47.85;;;29.42;;
22812;SDS011;11573;51.334;3.244;2022-08-19T00:51:00;55.45;;;29.65;;
22812;SDS011;11573;51.334;3.244;2022-08-19T00:53:28;50.63;;;29.83;;
22812;SDS011;11573;51.334;3.244;2022-08-19T00:55:58;45.90;;;28.08;;
22812;SDS011;11573;51.334;3.244;2022-08-19T00:58:29;43.97;;;29.13;;
22812;SDS011;11573;51.334;3.244;2022-08-19T01:00:59;46.53;;;27.65;;
22812;SDS011;11573;51.334;3.244;2022-08-19T01:03:27;45.30;;;26.23;;
22812;SDS011;11573;51.334;3.244;2022-08-19T01:06:14;50.58;;;28.08;;
22812;SDS011;11573;51.334;3.244;2022-08-19T01:08:46;55.42;;;27.10;;
22812;SDS011;11573;51.334;3.244;2022-08-19T01:11:15;43.05;;;25.65;;
22812;SDS011;11573;51.334;3.244;2022-08-19T01:13:43;47.20;;;27.25;;
22812;SDS011;11573;51.334;3.244;2022-08-19T01:16:15;46.65;;;26.75;;
22812;SDS011;11573;51.334;3.244;2022-08-19T01:18:45;49.15;;;27.27;;
22812;SDS011;11573;51.334;3.244;2022-08-19T01:21:16;49.17;;;27.00;;
22812;SDS011;11573;51.334;3.244;2022-08-19T01:23:57;43.80;;;26.50;;
22812;SDS011;11573;51.334;3.244;2022-08-19T01:26:24;39.72;;;24.40;;
22812;SDS011;11573;51.334;3.244;2022-08-19T01:28:54;49.60;;;25.23;;
22812;SDS011;11573;51.334;3.244;2022-08-19T01:31:28;42.65;;;24.63;;
22812;SDS011;11573;51.334;3.244;2022-08-19T01:33:59;44.58;;;24.50;;
22812;SDS011;11573;51.334;3.244;2022-08-19T01:38:54;46.15;;;24.42;;
22812;SDS011;11573;51.334;3.244;2022-08-19T01:41:22;46.67;;;24.40;;
22812;SDS011;11573;51.334;3.244;2022-08-19T01:43:54;45.30;;;24.67;;
22812;SDS011;11573;51.334;3.244;2022-08-19T01:46:42;46.50;;;25.42;;
22812;SDS011;11573;51.334;3.244;2022-08-19T01:49:10;39.03;;;23.30;;
22812;SDS011;11573;51.334;3.244;2022-08-19T01:51:37;41.05;;;25.50;;
22812;SDS011;11573;51.334;3.244;2022-08-19T01:54:06;42.10;;;23.00;;
22812;SDS011;11573;51.334;3.244;2022-08-19T01:56:34;41.95;;;23.02;;
22812;SDS011;11573;51.334;3.244;2022-08-19T01:59:03;47.38;;;23.77;;
22812;SDS011;11573;51.334;3.244;2022-08-19T02:01:34;43.35;;;24.10;;
22812;SDS011;11573;51.334;3.244;2022-08-19T02:04:01;43.72;;;22.75;;
22812;SDS011;11573;51.334;3.244;2022-08-19T02:06:29;49.05;;;22.65;;
22812;SDS011;11573;51.334;3.244;2022-08-19T02:08:56;49.63;;;23.38;;
22812;SDS011;11573;51.334;3.244;2022-08-19T02:11:25;41.20;;;21.52;;
22812;SDS011;11573;51.334;3.244;2022-08-19T02:14:00;43.10;;;23.02;;
22812;SDS011;11573;51.334;3.244;2022-08-19T02:16:29;43.67;;;22.08;;
22812;SDS011;11573;51.334;3.244;2022-08-19T02:18:56;36.13;;;19.92;;
22812;SDS011;11573;51.334;3.244;2022-08-19T02:21:27;48.97;;;22.45;;
22812;SDS011;11573;51.334;3.244;2022-08-19T02:23:55;41.35;;;22.05;;
22812;SDS011;11573;51.334;3.244;2022-08-19T02:26:22;38.95;;;21.52;;
22812;SDS011;11573;51.334;3.244;2022-08-19T02:28:49;41.85;;;23.42;;
22812;SDS011;11573;51.334;3.244;2022-08-19T02:31:18;40.92;;;22.67;;
22812;SDS011;11573;51.334;3.244;2022-08-19T02:33:47;49.10;;;24.73;;
22812;SDS011;11573;51.334;3.244;2022-08-19T02:36:15;41.17;;;23.48;;
22812;SDS011;11573;51.334;3.244;2022-08-19T02:38:46;46.03;;;23.27;;
22812;SDS011;11573;51.334;3.244;2022-08-19T02:41:21;42.88;;;23.35;;
22812;SDS011;11573;51.334;3.244;2022-08-19T02:43:53;39.05;;;21.70;;
22812;SDS011;11573;51.334;3.244;2022-08-19T02:46:47;50.22;;;25.27;;
22812;SDS011;11573;51.334;3.244;2022-08-19T02:49:17;43.97;;;24.27;;
22812;SDS011;11573;51.334;3.244;2022-08-19T02:51:45;50.60;;;25.65;;
22812;SDS011;11573;51.334;3.244;2022-08-19T02:54:13;43.00;;;22.83;;
22812;SDS011;11573;51.334;3.244;2022-08-19T02:56:41;39.67;;;23.23;;
22812;SDS011;11573;51.334;3.244;2022-08-19T02:59:09;39.03;;;22.92;;
22812;SDS011;11573;51.334;3.244;2022-08-19T03:01:38;41.20;;;23.23;;
22812;SDS011;11573;51.334;3.244;2022-08-19T03:04:08;46.13;;;23.27;;
22812;SDS011;11573;51.334;3.244;2022-08-19T03:06:42;43.97;;;22.60;;
22812;SDS011;11573;51.334;3.244;2022-08-19T03:09:11;42.47;;;21.65;;
22812;SDS011;11573;51.334;3.244;2022-08-19T03:11:38;43.67;;;22.80;;
22812;SDS011;11573;51.334;3.244;2022-08-19T03:14:06;36.42;;;21.13;;
22812;SDS011;11573;51.334;3.244;2022-08-19T03:16:39;42.60;;;22.05;;
22812;SDS011;11573;51.334;3.244;2022-08-19T03:19:08;41.13;;;22.33;;
22812;SDS011;11573;51.334;3.244;2022-08-19T03:21:35;48.97;;;23.40;;
22812;SDS011;11573;51.334;3.244;2022-08-19T03:24:03;35.22;;;21.88;;
22812;SDS011;11573;51.334;3.244;2022-08-19T03:26:33;43.20;;;21.67;;
22812;SDS011;11573;51.334;3.244;2022-08-19T03:29:04;38.42;;;21.40;;
22812;SDS011;11573;51.334;3.244;2022-08-19T03:31:33;35.25;;;20.75;;
22812;SDS011;11573;51.334;3.244;2022-08-19T03:34:19;45.78;;;20.63;;
22812;SDS011;11573;51.334;3.244;2022-08-19T03:36:54;37.42;;;20.15;;
22812;SDS011;11573;51.334;3.244;2022-08-19T03:39:24;38.55;;;19.90;;
22812;SDS011;11573;51.334;3.244;2022-08-19T03:41:52;39.88;;;21.75;;
22812;SDS011;11573;51.334;3.244;2022-08-19T03:44:42;41.63;;;21.55;;
22812;SDS011;11573;51.334;3.244;2022-08-19T03:47:10;43.03;;;22.58;;
22812;SDS011;11573;51.334;3.244;2022-08-19T03:49:42;36.00;;;20.40;;
22812;SDS011;11573;51.334;3.244;2022-08-19T03:52:09;33.13;;;20.90;;
22812;SDS011;11573;51.334;3.244;2022-08-19T03:54:37;38.60;;;20.67;;
22812;SDS011;11573;51.334;3.244;2022-08-19T03:57:04;40.95;;;20.58;;
22812;SDS011;11573;51.334;3.244;2022-08-19T03:59:34;38.97;;;19.48;;
22812;SDS011;11573;51.334;3.244;2022-08-19T04:02:06;36.08;;;19.85;;
22812;SDS011;11573;51.334;3.244;2022-08-19T04:04:36;29.33;;;16.83;;
22812;SDS011;11573;51.334;3.244;2022-08-19T04:07:07;30.27;;;17.90;;
22812;SDS011;11573;51.334;3.244;2022-08-19T04:09:35;32.78;;;18.33;;
22812;SDS011;11573;51.334;3.244;2022-08-19T04:12:03;35.25;;;17.48;;
22812;SDS011;11573;51.334;3.244;2022-08-19T04:14:32;33.08;;;16.63;;
22812;SDS011;11573;51.334;3.244;2022-08-19T04:17:01;38.53;;;17.58;;
22812;SDS011;11573;51.334;3.244;2022-08-19T04:19:31;36.80;;;18.20;;
22812;SDS011;11573;51.334;3.244;2022-08-19T04:22:00;42.20;;;18.38;;
22812;SDS011;11573;51.334;3.244;2022-08-19T04:24:27;32.47;;;17.15;;
22812;SDS011;11573;51.334;3.244;2022-08-19T04:26:54;34.13;;;18.10;;
22812;SDS011;11573;51.334;3.244;2022-08-19T04:29:23;47.10;;;19.10;;
22812;SDS011;11573;51.334;3.244;2022-08-19T04:31:52;38.03;;;19.52;;
22812;SDS011;11573;51.334;3.244;2022-08-19T04:34:21;33.03;;;18.85;;
22812;SDS011;11573;51.334;3.244;2022-08-19T04:36:50;33.63;;;18.42;;
22812;SDS011;11573;51.334;3.244;2022-08-19T04:39:20;39.47;;;21.05;;
22812;SDS011;11573;51.334;3.244;2022-08-19T04:42:16;32.88;;;20.27;;
22812;SDS011;11573;51.334;3.244;2022-08-19T04:45:03;42.13;;;20.95;;
22812;SDS011;11573;51.334;3.244;2022-08-19T04:47:38;39.28;;;22.08;;
22812;SDS011;11573;51.334;3.244;2022-08-19T04:50:24;41.97;;;21.88;;
22812;SDS011;11573;51.334;3.244;2022-08-19T04:52:52;44.20;;;25.13;;
22812;SDS011;11573;51.334;3.244;2022-08-19T04:55:23;46.42;;;22.77;;
22812;SDS011;11573;51.334;3.244;2022-08-19T04:57:52;41.35;;;21.63;;
22812;SDS011;11573;51.334;3.244;2022-08-19T05:00:20;42.95;;;21.08;;
22812;SDS011;11573;51.334;3.244;2022-08-19T05:02:47;37.30;;;22.13;;
22812;SDS011;11573;51.334;3.244;2022-08-19T05:05:15;36.47;;;20.80;;
22812;SDS011;11573;51.334;3.244;2022-08-19T05:07:43;38.22;;;20.65;;
22812;SDS011;11573;51.334;3.244;2022-08-19T05:10:10;36.35;;;19.52;;
22812;SDS011;11573;51.334;3.244;2022-08-19T05:12:37;32.70;;;19.38;;
22812;SDS011;11573;51.334;3.244;2022-08-19T05:15:05;30.02;;;18.85;;
22812;SDS011;11573;51.334;3.244;2022-08-19T05:17:34;30.27;;;18.77;;
22812;SDS011;11573;51.334;3.244;2022-08-19T05:20:05;28.42;;;18.95;;
22812;SDS011;11573;51.334;3.244;2022-08-19T05:22:51;26.42;;;18.33;;
22812;SDS011;11573;51.334;3.244;2022-08-19T05:25:20;26.77;;;17.17;;
22812;SDS011;11573;51.334;3.244;2022-08-19T05:27:47;22.65;;;14.98;;
22812;SDS011;11573;51.334;3.244;2022-08-19T05:30:15;26.38;;;16.65;;
22812;SDS011;11573;51.334;3.244;2022-08-19T05:32:42;24.15;;;16.30;;
22812;SDS011;11573;51.334;3.244;2022-08-19T05:35:09;25.58;;;15.65;;
22812;SDS011;11573;51.334;3.244;2022-08-19T05:37:37;22.95;;;14.75;;
22812;SDS011;11573;51.334;3.244;2022-08-19T05:40:07;21.98;;;14.18;;
22812;SDS011;11573;51.334;3.244;2022-08-19T05:42:35;23.20;;;13.38;;
22812;SDS011;11573;51.334;3.244;2022-08-19T05:45:02;19.73;;;12.43;;
22812;SDS011;11573;51.334;3.244;2022-08-19T05:47:30;20.17;;;12.27;;
22812;SDS011;11573;51.334;3.244;2022-08-19T05:49:56;17.48;;;10.75;;
22812;SDS011;11573;51.334;3.244;2022-08-19T05:52:23;19.35;;;10.82;;
22812;SDS011;11573;51.334;3.244;2022-08-19T05:54:52;32.67;;;11.10;;
22812;SDS011;11573;51.334;3.244;2022-08-19T05:57:21;17.92;;;10.95;;
22812;SDS011;11573;51.334;3.244;2022-08-19T05:59:50;20.77;;;11.73;;
22812;SDS011;11573;51.334;3.244;2022-08-19T06:02:24;22.20;;;12.23;;
22812;SDS011;11573;51.334;3.244;2022-08-19T06:04:55;17.92;;;12.63;;
22812;SDS011;11573;51.334;3.244;2022-08-19T06:07:22;22.67;;;12.77;;
22812;SDS011;11573;51.334;3.244;2022-08-19T06:09:49;18.20;;;12.15;;
22812;SDS011;11573;51.334;3.244;2022-08-19T06:12:30;16.38;;;11.45;;
22812;SDS011;11573;51.334;3.244;2022-08-19T06:15:02;22.67;;;12.23;;
22812;SDS011;11573;51.334;3.244;2022-08-19T06:17:32;20.15;;;13.88;;
22812;SDS011;11573;51.334;3.244;2022-08-19T06:20:08;17.30;;;12.52;;
22812;SDS011;11573;51.334;3.244;2022-08-19T06:22:39;21.10;;;14.52;;
22812;SDS011;11573;51.334;3.244;2022-08-19T06:25:08;17.48;;;13.38;;
22812;SDS011;11573;51.334;3.244;2022-08-19T06:27:35;27.95;;;15.98;;
22812;SDS011;11573;51.334;3.244;2022-08-19T06:30:13;20.95;;;15.45;;
22812;SDS011;11573;51.334;3.244;2022-08-19T06:32:41;21.70;;;13.70;;
22812;SDS011;11573;51.334;3.244;2022-08-19T06:35:08;21.02;;;13.57;;
22812;SDS011;11573;51.334;3.244;2022-08-19T06:37:35;20.85;;;15.25;;
22812;SDS011;11573;51.334;3.244;2022-08-19T06:40:08;24.17;;;15.55;;
22812;SDS011;11573;51.334;3.244;2022-08-19T06:42:37;24.02;;;14.93;;
22812;SDS011;11573;51.334;3.244;2022-08-19T06:45:11;21.63;;;15.63;;
22812;SDS011;11573;51.334;3.244;2022-08-19T06:47:39;21.73;;;15.10;;
22812;SDS011;11573;51.334;3.244;2022-08-19T06:50:06;25.67;;;15.75;;
22812;SDS011;11573;51.334;3.244;2022-08-19T06:52:34;22.67;;;16.05;;
22812;SDS011;11573;51.334;3.244;2022-08-19T06:55:04;29.17;;;16.55;;
22812;SDS011;11573;51.334;3.244;2022-08-19T06:57:32;30.77;;;19.50;;
22812;SDS011;11573;51.334;3.244;2022-08-19T07:00:00;28.80;;;17.55;;
22812;SDS011;11573;51.334;3.244;2022-08-19T07:02:27;24.67;;;16.05;;
22812;SDS011;11573;51.334;3.244;2022-08-19T07:04:54;24.33;;;16.02;;
22812;SDS011;11573;51.334;3.244;2022-08-19T07:07:24;23.15;;;16.30;;
22812;SDS011;11573;51.334;3.244;2022-08-19T07:09:52;27.35;;;16.67;;
22812;SDS011;11573;51.334;3.244;2022-08-19T07:12:30;28.35;;;17.42;;
22812;SDS011;11573;51.334;3.244;2022-08-19T07:15:04;26.77;;;17.48;;
22812;SDS011;11573;51.334;3.244;2022-08-19T07:17:31;27.50;;;18.08;;
22812;SDS011;11573;51.334;3.244;2022-08-19T07:20:00;29.10;;;18.27;;
22812;SDS011;11573;51.334;3.244;2022-08-19T07:22:33;23.63;;;17.10;;
22812;SDS011;11573;51.334;3.244;2022-08-19T07:25:01;24.02;;;17.13;;
22812;SDS011;11573;51.334;3.244;2022-08-19T07:27:30;19.65;;;16.05;;
22812;SDS011;11573;51.334;3.244;2022-08-19T07:29:59;17.98;;;14.52;;
22812;SDS011;11573;51.334;3.244;2022-08-19T07:32:26;19.73;;;14.60;;
22812;SDS011;11573;51.334;3.244;2022-08-19T07:34:53;19.70;;;15.38;;
22812;SDS011;11573;51.334;3.244;2022-08-19T07:37:23;20.88;;;17.23;;
22812;SDS011;11573;51.334;3.244;2022-08-19T07:39:58;21.30;;;15.23;;
22812;SDS011;11573;51.334;3.244;2022-08-19T07:42:25;22.30;;;15.20;;
22812;SDS011;11573;51.334;3.244;2022-08-19T07:44:52;16.58;;;13.63;;
22812;SDS011;11573;51.334;3.244;2022-08-19T07:47:19;16.60;;;13.63;;
22812;SDS011;11573;51.334;3.244;2022-08-19T07:50:08;16.13;;;13.93;;
22812;SDS011;11573;51.334;3.244;2022-08-19T07:52:38;17.40;;;14.52;;
22812;SDS011;11573;51.334;3.244;2022-08-19T07:55:07;17.52;;;13.70;;
22812;SDS011;11573;51.334;3.244;2022-08-19T07:57:56;15.35;;;13.63;;
22812;SDS011;11573;51.334;3.244;2022-08-19T08:00:23;19.25;;;14.38;;
22812;SDS011;11573;51.334;3.244;2022-08-19T08:02:51;16.25;;;13.65;;
22812;SDS011;11573;51.334;3.244;2022-08-19T08:05:21;14.77;;;13.20;;
22812;SDS011;11573;51.334;3.244;2022-08-19T08:08:09;16.55;;;13.60;;
22812;SDS011;11573;51.334;3.244;2022-08-19T08:10:57;14.75;;;13.13;;
22812;SDS011;11573;51.334;3.244;2022-08-19T08:13:25;18.92;;;13.73;;
22812;SDS011;11573;51.334;3.244;2022-08-19T08:15:54;19.25;;;13.10;;
22812;SDS011;11573;51.334;3.244;2022-08-19T08:18:22;19.98;;;13.52;;
22812;SDS011;11573;51.334;3.244;2022-08-19T08:20:53;15.80;;;12.35;;
22812;SDS011;11573;51.334;3.244;2022-08-19T08:23:22;17.70;;;13.68;;
22812;SDS011;11573;51.334;3.244;2022-08-19T08:25:52;18.92;;;14.15;;
22812;SDS011;11573;51.334;3.244;2022-08-19T08:28:23;20.42;;;14.75;;
22812;SDS011;11573;51.334;3.244;2022-08-19T08:30:54;18.23;;;14.07;;
22812;SDS011;11573;51.334;3.244;2022-08-19T08:33:23;17.35;;;14.93;;
22812;SDS011;11573;51.334;3.244;2022-08-19T08:36:01;16.05;;;13.68;;
22812;SDS011;11573;51.334;3.244;2022-08-19T08:38:31;15.40;;;13.75;;
22812;SDS011;11573;51.334;3.244;2022-08-19T08:44:23;20.83;;;15.60;;
22812;SDS011;11573;51.334;3.244;2022-08-19T08:47:03;18.33;;;14.05;;
22812;SDS011;11573;51.334;3.244;2022-08-19T08:49:48;16.23;;;13.80;;
22812;SDS011;11573;51.334;3.244;2022-08-19T08:52:24;15.20;;;10.93;;
22812;SDS011;11573;51.334;3.244;2022-08-19T08:54:59;12.10;;;10.52;;
22812;SDS011;11573;51.334;3.244;2022-08-19T08:57:37;14.73;;;11.27;;
22812;SDS011;11573;51.334;3.244;2022-08-19T09:02:57;14.55;;;10.68;;
22812;SDS011;11573;51.334;3.244;2022-08-19T09:05:27;13.57;;;10.98;;
22812;SDS011;11573;51.334;3.244;2022-08-19T09:08:17;19.98;;;11.10;;
22812;SDS011;11573;51.334;3.244;2022-08-19T09:10:56;11.23;;;9.43;;
22812;SDS011;11573;51.334;3.244;2022-08-19T09:13:29;7.22;;;4.80;;
22812;SDS011;11573;51.334;3.244;2022-08-19T09:16:29;7.68;;;4.47;;
22812;SDS011;11573;51.334;3.244;2022-08-19T09:18:57;6.80;;;3.80;;
22812;SDS011;11573;51.334;3.244;2022-08-19T09:21:28;4.43;;;2.65;;
22812;SDS011;11573;51.334;3.244;2022-08-19T09:23:59;6.40;;;3.00;;
22812;SDS011;11573;51.334;3.244;2022-08-19T09:26:29;5.07;;;2.78;;
22812;SDS011;11573;51.334;3.244;2022-08-19T09:29:17;6.90;;;2.40;;
22812;SDS011;11573;51.334;3.244;2022-08-19T09:31:47;3.35;;;2.10;;
22812;SDS011;11573;51.334;3.244;2022-08-19T09:34:15;4.70;;;2.33;;
22812;SDS011;11573;51.334;3.244;2022-08-19T09:36:47;7.65;;;2.88;;
22812;SDS011;11573;51.334;3.244;2022-08-19T09:39:16;6.15;;;3.28;;
22812;SDS011;11573;51.334;3.244;2022-08-19T09:41:43;8.38;;;3.88;;
22812;SDS011;11573;51.334;3.244;2022-08-19T09:44:14;9.13;;;4.57;;
22812;SDS011;11573;51.334;3.244;2022-08-19T09:46:43;10.13;;;4.38;;
22812;SDS011;11573;51.334;3.244;2022-08-19T09:49:10;7.45;;;4.68;;
22812;SDS011;11573;51.334;3.244;2022-08-19T09:51:38;8.88;;;4.38;;
22812;SDS011;11573;51.334;3.244;2022-08-19T09:54:06;6.72;;;3.80;;
22812;SDS011;11573;51.334;3.244;2022-08-19T09:56:36;5.40;;;3.80;;
22812;SDS011;11573;51.334;3.244;2022-08-19T09:59:03;6.18;;;3.20;;
22812;SDS011;11573;51.334;3.244;2022-08-19T10:01:31;4.82;;;2.50;;
22812;SDS011;11573;51.334;3.244;2022-08-19T10:03:59;8.57;;;3.03;;
22812;SDS011;11573;51.334;3.244;2022-08-19T10:06:39;7.20;;;2.50;;
22812;SDS011;11573;51.334;3.244;2022-08-19T10:09:12;5.72;;;2.10;;
22812;SDS011;11573;51.334;3.244;2022-08-19T10:11:41;4.15;;;1.95;;
22812;SDS011;11573;51.334;3.244;2022-08-19T10:14:19;5.10;;;2.28;;
22812;SDS011;11573;51.334;3.244;2022-08-19T10:16:49;5.80;;;2.10;;
22812;SDS011;11573;51.334;3.244;2022-08-19T10:19:16;5.03;;;2.30;;
22812;SDS011;11573;51.334;3.244;2022-08-19T10:21:52;11.10;;;4.07;;
22812;SDS011;11573;51.334;3.244;2022-08-19T10:24:25;8.32;;;6.40;;
22812;SDS011;11573;51.334;3.244;2022-08-19T10:26:54;10.73;;;8.60;;
22812;SDS011;11573;51.334;3.244;2022-08-19T10:29:25;14.10;;;9.75;;
22812;SDS011;11573;51.334;3.244;2022-08-19T10:32:01;10.43;;;9.38;;
22812;SDS011;11573;51.334;3.244;2022-08-19T10:34:36;15.07;;;12.27;;
22812;SDS011;11573;51.334;3.244;2022-08-19T10:37:14;18.17;;;14.23;;
22812;SDS011;11573;51.334;3.244;2022-08-19T10:39:54;14.07;;;12.25;;
22812;SDS011;11573;51.334;3.244;2022-08-19T10:42:21;14.82;;;11.68;;
22812;SDS011;11573;51.334;3.244;2022-08-19T10:44:48;13.85;;;10.90;;
22812;SDS011;11573;51.334;3.244;2022-08-19T10:47:17;13.02;;;11.10;;
22812;SDS011;11573;51.334;3.244;2022-08-19T10:49:54;14.65;;;11.13;;
22812;SDS011;11573;51.334;3.244;2022-08-19T10:52:42;11.00;;;8.82;;
22812;SDS011;11573;51.334;3.244;2022-08-19T10:55:20;8.50;;;7.22;;
22812;SDS011;11573;51.334;3.244;2022-08-19T10:58:15;8.45;;;7.10;;
22812;SDS011;11573;51.334;3.244;2022-08-19T11:00:55;8.40;;;6.50;;
22812;SDS011;11573;51.334;3.244;2022-08-19T11:03:24;27.92;;;7.93;;
22812;SDS011;11573;51.334;3.244;2022-08-19T11:05:57;18.65;;;8.80;;
22812;SDS011;11573;51.334;3.244;2022-08-19T11:08:29;16.80;;;10.32;;
22812;SDS011;11573;51.334;3.244;2022-08-19T11:10:58;13.25;;;11.18;;
22812;SDS011;11573;51.334;3.244;2022-08-19T11:13:27;12.73;;;11.43;;
22812;SDS011;11573;51.334;3.244;2022-08-19T11:16:01;13.95;;;10.25;;
22812;SDS011;11573;51.334;3.244;2022-08-19T11:18:35;11.75;;;10.52;;
22812;SDS011;11573;51.334;3.244;2022-08-19T11:21:11;8.10;;;7.22;;
22812;SDS011;11573;51.334;3.244;2022-08-19T11:23:40;7.35;;;6.65;;
22812;SDS011;11573;51.334;3.244;2022-08-19T11:26:07;9.20;;;7.28;;
22812;SDS011;11573;51.334;3.244;2022-08-19T11:28:34;8.60;;;7.65;;
22812;SDS011;11573;51.334;3.244;2022-08-19T11:31:02;11.93;;;7.78;;
22812;SDS011;11573;51.334;3.244;2022-08-19T11:33:30;10.82;;;6.90;;
22812;SDS011;11573;51.334;3.244;2022-08-19T11:35:59;11.68;;;7.93;;
22812;SDS011;11573;51.334;3.244;2022-08-19T11:38:27;9.27;;;8.32;;
22812;SDS011;11573;51.334;3.244;2022-08-19T11:40:59;14.07;;;10.07;;
22812;SDS011;11573;51.334;3.244;2022-08-19T11:43:29;13.43;;;9.70;;
22812;SDS011;11573;51.334;3.244;2022-08-19T11:46:06;12.85;;;8.18;;
22812;SDS011;11573;51.334;3.244;2022-08-19T11:48:34;15.15;;;8.52;;
22812;SDS011;11573;51.334;3.244;2022-08-19T11:51:09;10.00;;;7.63;;
22812;SDS011;11573;51.334;3.244;2022-08-19T11:53:41;13.30;;;8.48;;
22812;SDS011;11573;51.334;3.244;2022-08-19T11:56:08;11.77;;;7.22;;
22812;SDS011;11573;51.334;3.244;2022-08-19T11:58:36;11.35;;;6.75;;
22812;SDS011;11573;51.334;3.244;2022-08-19T12:01:09;12.30;;;6.45;;
22812;SDS011;11573;51.334;3.244;2022-08-19T12:03:37;17.20;;;5.87;;
22812;SDS011;11573;51.334;3.244;2022-08-19T12:06:05;13.70;;;5.95;;
22812;SDS011;11573;51.334;3.244;2022-08-19T12:08:33;11.27;;;5.85;;
22812;SDS011;11573;51.334;3.244;2022-08-19T12:11:00;8.88;;;5.78;;
22812;SDS011;11573;51.334;3.244;2022-08-19T12:13:28;13.25;;;6.00;;
22812;SDS011;11573;51.334;3.244;2022-08-19T12:15:56;13.43;;;4.97;;
22812;SDS011;11573;51.334;3.244;2022-08-19T12:18:24;13.95;;;5.47;;
22812;SDS011;11573;51.334;3.244;2022-08-19T12:20:53;11.10;;;4.60;;
22812;SDS011;11573;51.334;3.244;2022-08-19T12:23:23;15.88;;;4.35;;
22812;SDS011;11573;51.334;3.244;2022-08-19T12:25:50;14.65;;;4.45;;
22812;SDS011;11573;51.334;3.244;2022-08-19T12:28:18;12.90;;;4.63;;
22812;SDS011;11573;51.334;3.244;2022-08-19T12:30:46;11.38;;;4.43;;
22812;SDS011;11573;51.334;3.244;2022-08-19T12:33:14;15.23;;;4.80;;
22812;SDS011;11573;51.334;3.244;2022-08-19T12:35:42;12.13;;;4.63;;
22812;SDS011;11573;51.334;3.244;2022-08-19T12:38:13;18.10;;;4.63;;
22812;SDS011;11573;51.334;3.244;2022-08-19T12:40:41;14.25;;;4.20;;
22812;SDS011;11573;51.334;3.244;2022-08-19T12:43:11;10.25;;;3.83;;
22812;SDS011;11573;51.334;3.244;2022-08-19T12:45:38;11.68;;;3.35;;
22812;SDS011;11573;51.334;3.244;2022-08-19T12:48:07;9.25;;;3.60;;
22812;SDS011;11573;51.334;3.244;2022-08-19T12:50:55;13.40;;;3.80;;
22812;SDS011;11573;51.334;3.244;2022-08-19T12:53:22;11.98;;;3.85;;
22812;SDS011;11573;51.334;3.244;2022-08-19T12:55:56;9.20;;;3.78;;
22812;SDS011;11573;51.334;3.244;2022-08-19T12:58:26;10.20;;;3.28;;
22812;SDS011;11573;51.334;3.244;2022-08-19T13:00:54;11.20;;;3.65;;
22812;SDS011;11573;51.334;3.244;2022-08-19T13:03:21;9.15;;;2.83;;
22812;SDS011;11573;51.334;3.244;2022-08-19T13:05:55;11.55;;;3.30;;
22812;SDS011;11573;51.334;3.244;2022-08-19T13:08:22;5.55;;;2.50;;
22812;SDS011;11573;51.334;3.244;2022-08-19T13:10:49;8.35;;;2.80;;
22812;SDS011;11573;51.334;3.244;2022-08-19T13:13:16;5.10;;;2.42;;
22812;SDS011;11573;51.334;3.244;2022-08-19T13:15:43;5.38;;;2.70;;
22812;SDS011;11573;51.334;3.244;2022-08-19T13:18:12;4.07;;;2.40;;
22812;SDS011;11573;51.334;3.244;2022-08-19T13:20:40;3.55;;;2.05;;
22812;SDS011;11573;51.334;3.244;2022-08-19T13:23:17;3.58;;;2.40;;
22812;SDS011;11573;51.334;3.244;2022-08-19T13:25:44;5.72;;;2.40;;
22812;SDS011;11573;51.334;3.244;2022-08-19T13:28:13;6.43;;;2.60;;
22812;SDS011;11573;51.334;3.244;2022-08-19T13:30:41;7.57;;;2.85;;
22812;SDS011;11573;51.334;3.244;2022-08-19T13:33:31;9.48;;;4.00;;
22812;SDS011;11573;51.334;3.244;2022-08-19T13:35:59;11.95;;;3.70;;
22812;SDS011;11573;51.334;3.244;2022-08-19T13:38:27;13.77;;;3.92;;
22812;SDS011;11573;51.334;3.244;2022-08-19T13:40:55;9.90;;;3.97;;
22812;SDS011;11573;51.334;3.244;2022-08-19T13:43:24;24.63;;;4.00;;
22812;SDS011;11573;51.334;3.244;2022-08-19T13:45:53;8.68;;;3.38;;
22812;SDS011;11573;51.334;3.244;2022-08-19T13:48:23;13.20;;;4.20;;
22812;SDS011;11573;51.334;3.244;2022-08-19T13:50:51;12.93;;;4.63;;
22812;SDS011;11573;51.334;3.244;2022-08-19T13:53:18;11.98;;;3.90;;
22812;SDS011;11573;51.334;3.244;2022-08-19T13:55:45;10.18;;;4.35;;
22812;SDS011;11573;51.334;3.244;2022-08-19T13:58:12;7.93;;;3.45;;
22812;SDS011;11573;51.334;3.244;2022-08-19T14:00:41;8.40;;;4.13;;
22812;SDS011;11573;51.334;3.244;2022-08-19T14:03:10;10.02;;;3.53;;
22812;SDS011;11573;51.334;3.244;2022-08-19T14:05:37;12.88;;;3.50;;
22812;SDS011;11573;51.334;3.244;2022-08-19T14:08:04;11.98;;;3.70;;
22812;SDS011;11573;51.334;3.244;2022-08-19T14:10:32;11.60;;;3.28;;
22812;SDS011;11573;51.334;3.244;2022-08-19T14:13:00;8.57;;;3.38;;
22812;SDS011;11573;51.334;3.244;2022-08-19T14:15:29;7.72;;;3.30;;
22812;SDS011;11573;51.334;3.244;2022-08-19T14:17:56;8.07;;;3.38;;
22812;SDS011;11573;51.334;3.244;2022-08-19T14:20:24;7.18;;;3.17;;
22812;SDS011;11573;51.334;3.244;2022-08-19T14:22:52;6.72;;;2.88;;
22812;SDS011;11573;51.334;3.244;2022-08-19T14:25:20;8.40;;;3.22;;
22812;SDS011;11573;51.334;3.244;2022-08-19T14:27:50;6.68;;;2.90;;
22812;SDS011;11573;51.334;3.244;2022-08-19T14:30:18;7.45;;;2.60;;
22812;SDS011;11573;51.334;3.244;2022-08-19T14:32:51;5.90;;;2.70;;
22812;SDS011;11573;51.334;3.244;2022-08-19T14:35:20;4.38;;;2.22;;
22812;SDS011;11573;51.334;3.244;2022-08-19T14:37:48;6.90;;;2.60;;
22812;SDS011;11573;51.334;3.244;2022-08-19T14:40:17;7.60;;;2.97;;
22812;SDS011;11573;51.334;3.244;2022-08-19T14:42:49;6.88;;;2.92;;
22812;SDS011;11573;51.334;3.244;2022-08-19T14:45:16;7.85;;;3.30;;
22812;SDS011;11573;51.334;3.244;2022-08-19T14:47:43;11.27;;;2.88;;
22812;SDS011;11573;51.334;3.244;2022-08-19T14:50:18;7.97;;;2.60;;
22812;SDS011;11573;51.334;3.244;2022-08-19T14:52:46;12.20;;;3.30;;
22812;SDS011;11573;51.334;3.244;2022-08-19T14:55:14;10.15;;;3.83;;
22812;SDS011;11573;51.334;3.244;2022-08-19T14:57:43;10.35;;;3.03;;